createdAt,value
2019-01-31T00:01:38.451Z,28.70
2019-01-31T00:05:25.064Z,26.97
2019-01-31T00:09:00.960Z,28.07
2019-01-31T00:12:34.513Z,26.90
2019-01-31T00:15:50.152Z,26.23
2019-01-31T00:19:29.737Z,28.53
2019-01-31T00:23:10.265Z,31.20
2019-01-31T00:26:49.364Z,28.13
2019-01-31T00:30:34.268Z,26.93
2019-01-31T00:33:49.619Z,27.57
2019-01-31T00:37:26.053Z,26.57
2019-01-31T00:40:42.033Z,25.80
2019-01-31T00:44:15.220Z,25.30
2019-01-31T00:47:45.964Z,27.70
2019-01-31T00:51:12.102Z,27.07
2019-01-31T00:54:54.253Z,25.08
2019-01-31T00:58:40.319Z,27.73
2019-01-31T01:02:03.747Z,29.03
2019-01-31T01:06:07.170Z,27.67
2019-01-31T01:09:20.644Z,26.93
2019-01-31T01:13:18.040Z,26.53
2019-01-31T01:16:55.267Z,28.63
2019-01-31T01:20:31.761Z,29.30
2019-01-31T01:24:04.352Z,30.30
2019-01-31T01:27:45.940Z,28.13
2019-01-31T01:31:44.151Z,28.23
2019-01-31T01:35:26.240Z,27.17
2019-01-31T01:39:07.127Z,29.53
2019-01-31T01:42:38.623Z,29.10
2019-01-31T01:46:14.754Z,28.00
2019-01-31T01:49:34.741Z,29.50
2019-01-31T01:53:17.683Z,27.97
2019-01-31T01:57:04.172Z,30.10
2019-01-31T02:00:49.867Z,29.47
2019-01-31T02:04:23.766Z,26.70
2019-01-31T02:07:42.946Z,29.40
2019-01-31T02:11:32.104Z,27.60
2019-01-31T02:15:13.541Z,30.27
2019-01-31T02:18:39.902Z,28.93
2019-01-31T02:22:16.207Z,28.37
2019-01-31T02:25:43.179Z,28.50
2019-01-31T02:29:36.231Z,29.83
2019-01-31T02:33:06.721Z,26.73
2019-01-31T02:36:40.517Z,28.93
2019-01-31T02:40:18.074Z,29.80
2019-01-31T02:43:33.792Z,28.97
2019-01-31T02:47:31.791Z,29.57
2019-01-31T02:50:56.223Z,27.77
2019-01-31T02:54:13.926Z,29.20
2019-01-31T02:58:11.883Z,29.53
2019-01-31T03:01:43.263Z,26.43
2019-01-31T03:05:22.653Z,27.60
2019-01-31T03:08:38.065Z,27.47
2019-01-31T03:12:13.306Z,26.80
2019-01-31T03:15:50.201Z,26.43
2019-01-31T03:19:03.839Z,26.73
2019-01-31T03:22:18.851Z,28.33
2019-01-31T03:26:03.131Z,27.07
2019-01-31T03:29:44.565Z,27.93
2019-01-31T03:33:00.688Z,27.60
2019-01-31T03:36:25.373Z,27.30
2019-01-31T03:40:06.604Z,28.50
2019-01-31T03:43:13.475Z,27.87
2019-01-31T03:46:50.937Z,30.83
2019-01-31T03:50:26.583Z,33.90
2019-01-31T03:53:57.617Z,30.63
2019-01-31T03:57:18.060Z,30.87
2019-01-31T04:01:03.701Z,28.70
2019-01-31T04:04:22.845Z,29.23
2019-01-31T04:07:27.748Z,26.63
2019-01-31T04:10:32.741Z,29.23
2019-01-31T04:13:37.707Z,28.43
2019-01-31T04:16:42.832Z,30.63
2019-01-31T04:19:47.789Z,28.97
2019-01-31T04:22:52.920Z,31.20
2019-01-31T04:25:57.966Z,29.13
2019-01-31T04:29:03.053Z,31.70
2019-01-31T04:32:07.939Z,31.90
2019-01-31T04:35:14.118Z,33.80
2019-01-31T04:38:19.946Z,32.07
2019-01-31T04:41:25.179Z,31.53
2019-01-31T04:44:30.163Z,31.47
2019-01-31T04:47:41.185Z,30.67
2019-01-31T04:50:46.154Z,31.10
2019-01-31T04:53:51.046Z,31.07
2019-01-31T04:56:55.947Z,33.87
2019-01-31T05:00:01.052Z,32.63
2019-01-31T05:03:06.003Z,33.60
2019-01-31T05:06:11.088Z,32.30
2019-01-31T05:09:16.003Z,31.63
2019-01-31T05:12:20.844Z,30.70
2019-01-31T05:15:25.793Z,32.23
2019-01-31T05:18:30.753Z,34.23
2019-01-31T05:21:35.820Z,32.10
2019-01-31T05:24:41.086Z,33.63
2019-01-31T05:27:46.103Z,36.40
2019-01-31T05:30:51.374Z,32.90
2019-01-31T05:33:56.305Z,34.70
2019-01-31T05:37:01.448Z,36.33
2019-01-31T05:40:07.732Z,36.23
2019-01-31T05:43:12.808Z,33.43
2019-01-31T05:46:18.394Z,34.50
2019-01-31T05:49:23.477Z,32.60
2019-01-31T05:52:28.396Z,30.47
2019-01-31T05:55:33.613Z,30.47
2019-01-31T05:58:38.652Z,30.83
2019-01-31T06:01:43.566Z,34.03
2019-01-31T06:04:48.640Z,32.57
2019-01-31T06:07:53.929Z,34.53
2019-01-31T06:11:07.519Z,35.17
2019-01-31T06:14:12.969Z,34.70
2019-01-31T06:17:17.920Z,33.97
2019-01-31T06:20:24.551Z,32.80
2019-01-31T06:23:29.541Z,32.50
2019-01-31T06:26:34.764Z,32.50
2019-01-31T06:29:39.795Z,33.47
2019-01-31T06:32:45.389Z,31.47
2019-01-31T06:35:50.336Z,30.03
2019-01-31T06:38:55.280Z,32.70
2019-01-31T06:42:00.250Z,31.90
2019-01-31T06:45:09.039Z,30.47
2019-01-31T06:48:13.964Z,30.53
2019-01-31T06:51:18.970Z,32.30
2019-01-31T06:54:24.096Z,31.30
2019-01-31T06:57:29.165Z,32.90
2019-01-31T07:00:34.417Z,34.20
2019-01-31T07:03:39.332Z,29.60
2019-01-31T07:06:44.476Z,32.90
2019-01-31T07:09:49.515Z,32.97
2019-01-31T07:12:54.781Z,33.17
2019-01-31T07:15:59.642Z,34.80
2019-01-31T07:19:04.866Z,30.07
2019-01-31T07:22:09.906Z,32.10
2019-01-31T07:25:18.622Z,31.43
2019-01-31T07:28:23.576Z,30.80
2019-01-31T07:31:28.675Z,29.60
2019-01-31T07:34:33.757Z,32.33
2019-01-31T07:37:38.757Z,27.77
2019-01-31T07:40:43.766Z,32.33
2019-01-31T07:43:48.777Z,30.80
2019-01-31T07:47:12.633Z,29.40
2019-01-31T07:50:17.788Z,28.90
2019-01-31T07:53:22.906Z,30.00
2019-01-31T07:56:27.790Z,31.27
2019-01-31T07:59:32.798Z,30.20
2019-01-31T08:02:37.839Z,31.97
2019-01-31T08:05:43.020Z,30.63
2019-01-31T08:08:47.937Z,28.43
2019-01-31T08:11:53.080Z,29.73
2019-01-31T08:14:58.068Z,29.10
2019-01-31T08:18:03.096Z,32.40
2019-01-31T08:21:11.156Z,28.37
2019-01-31T08:24:16.112Z,28.90
2019-01-31T08:27:22.673Z,30.50
2019-01-31T08:30:30.375Z,30.70
2019-01-31T08:33:35.382Z,29.47
2019-01-31T08:36:40.354Z,30.90
2019-01-31T08:39:45.346Z,32.13
2019-01-31T08:42:50.514Z,29.50
2019-01-31T08:45:55.611Z,29.53
2019-01-31T08:49:01.110Z,29.83
2019-01-31T08:52:06.318Z,29.00
2019-01-31T08:55:11.880Z,30.80
2019-01-31T08:58:17.029Z,32.43
2019-01-31T09:01:22.153Z,28.37
2019-01-31T09:04:27.195Z,28.90
2019-01-31T09:07:32.446Z,29.73
2019-01-31T09:10:39.161Z,27.90
2019-01-31T09:13:46.595Z,29.83
2019-01-31T09:16:51.488Z,31.57
2019-01-31T09:19:56.421Z,29.77
2019-01-31T09:23:41.389Z,28.70
2019-01-31T09:27:18.479Z,28.40
2019-01-31T09:31:07.430Z,29.50
2019-01-31T09:34:37.270Z,29.27
2019-01-31T09:38:17.109Z,28.83
2019-01-31T09:41:57.042Z,31.50
2019-01-31T09:45:36.789Z,29.17
2019-01-31T09:49:28.284Z,33.60
2019-01-31T09:53:15.140Z,28.93
2019-01-31T09:57:21.948Z,31.80
2019-01-31T10:01:06.600Z,31.10
2019-01-31T10:05:19.417Z,31.50
2019-01-31T10:08:57.201Z,28.83
2019-01-31T10:12:58.157Z,29.07
2019-01-31T10:16:43.374Z,31.97
2019-01-31T10:20:29.554Z,30.33
2019-01-31T10:24:18.786Z,30.40
2019-01-31T10:28:00.138Z,26.80
2019-01-31T10:31:41.637Z,27.37
2019-01-31T10:35:36.922Z,28.63
2019-01-31T10:39:17.535Z,29.97
2019-01-31T10:42:50.535Z,28.27
2019-01-31T10:46:17.037Z,30.20
2019-01-31T10:50:24.149Z,30.10
2019-01-31T10:53:53.886Z,31.87
2019-01-31T10:57:34.445Z,31.10
2019-01-31T11:01:12.516Z,31.33
2019-01-31T11:04:49.307Z,30.97
2019-01-31T11:08:06.461Z,31.50
2019-01-31T11:11:18.387Z,32.70
2019-01-31T11:14:59.013Z,31.13
2019-01-31T11:18:37.065Z,31.23
2019-01-31T11:22:22.850Z,29.20
2019-01-31T11:26:10.286Z,32.83
2019-01-31T11:30:08.674Z,28.77
2019-01-31T11:33:53.605Z,27.80
2019-01-31T11:37:24.489Z,27.37
2019-01-31T11:41:01.009Z,32.73
2019-01-31T11:44:59.148Z,33.87
2019-01-31T11:49:03.305Z,29.03
2019-01-31T11:52:43.062Z,28.83
2019-01-31T11:56:14.948Z,28.90
2019-01-31T11:59:20.021Z,29.10
2019-01-31T12:02:25.065Z,31.50
2019-01-31T12:05:30.237Z,31.27
2019-01-31T12:08:35.142Z,32.00
2019-01-31T12:11:40.285Z,30.10
2019-01-31T12:14:45.504Z,33.27
2019-01-31T12:17:50.509Z,31.10
2019-01-31T12:20:55.622Z,32.97
2019-01-31T12:24:00.573Z,30.07
2019-01-31T12:27:05.841Z,27.67
2019-01-31T12:30:15.776Z,27.77
2019-01-31T12:33:20.748Z,30.97
2019-01-31T12:36:25.524Z,30.00
2019-01-31T12:39:30.697Z,30.57
2019-01-31T12:42:35.465Z,30.67
2019-01-31T12:45:40.225Z,32.73
2019-01-31T12:48:44.982Z,35.63
2019-01-31T12:51:50.926Z,29.60
2019-01-31T12:54:55.915Z,27.07
2019-01-31T12:58:00.857Z,29.57
2019-01-31T13:01:06.400Z,29.20
2019-01-31T13:04:11.682Z,29.43
2019-01-31T13:07:16.931Z,29.37
2019-01-31T13:10:21.935Z,27.57
2019-01-31T13:13:27.216Z,27.47
2019-01-31T13:16:32.313Z,27.87
2019-01-31T13:19:37.555Z,25.77
2019-01-31T13:22:42.697Z,24.63
2019-01-31T13:25:49.668Z,27.20
2019-01-31T13:28:54.656Z,25.30
2019-01-31T13:31:59.916Z,26.20
2019-01-31T13:35:05.206Z,26.00
2019-01-31T13:38:10.889Z,25.00
2019-01-31T13:41:16.051Z,25.60
2019-01-31T13:44:23.079Z,25.70
2019-01-31T13:47:28.215Z,24.60
2019-01-31T13:50:33.677Z,25.83
2019-01-31T13:53:38.821Z,25.50
2019-01-31T13:56:45.692Z,25.27
2019-01-31T13:59:50.761Z,25.63
2019-01-31T14:02:56.017Z,24.80
2019-01-31T14:06:01.013Z,25.30
2019-01-31T14:09:09.590Z,27.00
2019-01-31T14:12:14.580Z,24.10
2019-01-31T14:15:32.907Z,35.50
2019-01-31T14:18:29.467Z,25.67
2019-01-31T14:21:34.522Z,25.30
2019-01-31T14:24:39.602Z,25.53
2019-01-31T14:27:44.987Z,25.70
2019-01-31T14:30:50.050Z,24.23
2019-01-31T14:33:55.368Z,24.07
2019-01-31T14:37:01.068Z,25.00
2019-01-31T14:40:06.808Z,24.03
2019-01-31T14:43:12.145Z,26.60
2019-01-31T14:46:17.390Z,27.10
2019-01-31T14:49:22.604Z,23.63
2019-01-31T14:52:28.013Z,21.37
2019-01-31T14:55:32.969Z,22.13
2019-01-31T14:58:38.446Z,23.30
2019-01-31T15:01:43.404Z,25.60
2019-01-31T15:04:48.557Z,25.70
2019-01-31T15:07:53.506Z,25.00
2019-01-31T15:10:58.498Z,23.67
2019-01-31T15:14:03.588Z,26.73
2019-01-31T15:17:08.580Z,23.17
2019-01-31T15:20:22.098Z,24.00
2019-01-31T15:23:27.691Z,25.03
2019-01-31T15:26:32.945Z,24.60
2019-01-31T15:29:37.875Z,25.17
2019-01-31T15:32:43.145Z,25.67
2019-01-31T15:35:48.155Z,23.73
2019-01-31T15:38:53.278Z,27.97
2019-01-31T15:41:58.323Z,25.87
2019-01-31T15:45:03.481Z,26.77
2019-01-31T15:48:10.838Z,25.97
2019-01-31T15:51:16.069Z,25.53
2019-01-31T15:54:21.609Z,28.12
2019-01-31T15:57:26.553Z,26.30
2019-01-31T16:00:45.053Z,26.20
2019-01-31T16:03:50.167Z,25.77
2019-01-31T16:06:55.558Z,23.93
2019-01-31T16:10:00.851Z,26.60
2019-01-31T16:13:06.344Z,27.40
2019-01-31T16:16:11.287Z,29.77
2019-01-31T16:19:16.292Z,26.90
2019-01-31T16:22:21.405Z,29.57
2019-01-31T16:25:26.356Z,27.80
2019-01-31T16:28:31.521Z,28.47
2019-01-31T16:31:36.485Z,31.00
2019-01-31T16:35:00.687Z,30.37
2019-01-31T16:38:06.413Z,29.97
2019-01-31T16:41:11.407Z,29.90
2019-01-31T16:44:17.526Z,29.47
2019-01-31T16:47:22.609Z,31.33
2019-01-31T16:50:27.815Z,30.90
2019-01-31T16:53:32.857Z,32.47
2019-01-31T16:56:38.145Z,32.97
2019-01-31T16:59:43.145Z,32.07
2019-01-31T17:02:48.388Z,32.37
2019-01-31T17:05:53.501Z,31.23
2019-01-31T17:08:59.593Z,34.10
2019-01-31T17:12:04.701Z,33.70
2019-01-31T17:15:17.670Z,33.33
2019-01-31T17:18:16.685Z,31.50
2019-01-31T17:21:22.104Z,34.40
2019-01-31T17:24:26.789Z,33.67
2019-01-31T17:27:31.704Z,32.43
2019-01-31T17:30:36.799Z,31.87
2019-01-31T17:33:41.750Z,30.20
2019-01-31T17:36:46.669Z,31.17
2019-01-31T17:39:51.630Z,33.10
2019-01-31T17:42:56.646Z,32.07
2019-01-31T17:46:01.716Z,31.23
2019-01-31T17:49:06.926Z,29.73
2019-01-31T17:52:12.301Z,30.93
2019-01-31T17:55:19.952Z,31.30
2019-01-31T17:58:24.707Z,28.37
2019-01-31T18:01:29.685Z,30.03
2019-01-31T18:04:34.738Z,30.20
2019-01-31T18:07:39.525Z,28.43
2019-01-31T18:10:46.508Z,28.43
2019-01-31T18:13:52.740Z,29.67
2019-01-31T18:16:58.013Z,29.40
2019-01-31T18:20:03.151Z,31.47
2019-01-31T18:23:08.344Z,30.63
2019-01-31T18:26:13.383Z,32.47
2019-01-31T18:29:18.410Z,34.57
2019-01-31T18:32:23.449Z,33.87
2019-01-31T18:35:28.631Z,33.27
2019-01-31T18:38:33.507Z,33.93
2019-01-31T18:41:38.559Z,35.20
2019-01-31T18:44:43.919Z,34.17
2019-01-31T18:47:48.858Z,34.07
2019-01-31T18:50:54.133Z,35.50
2019-01-31T18:53:59.147Z,35.80
2019-01-31T18:57:04.182Z,39.20
2019-01-31T19:00:16.267Z,36.37
2019-01-31T19:03:21.184Z,39.20
2019-01-31T19:06:26.359Z,35.33
2019-01-31T19:09:31.400Z,37.90
2019-01-31T19:12:36.335Z,33.57
2019-01-31T19:15:41.817Z,36.87
2019-01-31T19:18:47.198Z,36.53
2019-01-31T19:21:52.591Z,38.20
2019-01-31T19:25:16.551Z,37.10
2019-01-31T19:28:22.401Z,34.10
2019-01-31T19:31:27.701Z,38.27
2019-01-31T19:34:32.769Z,38.63
2019-01-31T19:37:38.103Z,38.60
2019-01-31T19:40:45.595Z,40.13
2019-01-31T19:43:50.650Z,35.93
2019-01-31T19:46:55.707Z,37.30
2019-01-31T19:50:00.836Z,32.13
2019-01-31T19:53:06.282Z,35.80
2019-01-31T19:56:11.352Z,38.80
2019-01-31T19:59:16.496Z,36.70
2019-01-31T20:02:21.457Z,39.40
2019-01-31T20:05:26.743Z,35.50
2019-01-31T20:08:31.861Z,35.87
2019-01-31T20:11:37.113Z,36.23
2019-01-31T20:14:42.125Z,36.33
2019-01-31T20:17:47.576Z,33.77
2019-01-31T20:20:52.797Z,35.07
2019-01-31T20:23:58.112Z,34.33
2019-01-31T20:27:03.384Z,35.80
2019-01-31T20:30:09.439Z,36.97
2019-01-31T20:33:15.022Z,36.37
2019-01-31T20:36:20.290Z,34.87
2019-01-31T20:39:25.475Z,35.70
2019-01-31T20:42:35.455Z,33.17
2019-01-31T20:45:40.720Z,31.30
2019-01-31T20:48:45.988Z,32.17
2019-01-31T20:51:51.213Z,31.40
2019-01-31T20:54:56.345Z,32.93
2019-01-31T20:58:01.400Z,35.40
2019-01-31T21:01:07.881Z,32.57
2019-01-31T21:04:13.968Z,36.97
2019-01-31T21:07:19.284Z,35.50
2019-01-31T21:10:26.326Z,38.77
2019-01-31T21:13:31.430Z,32.33
2019-01-31T21:16:36.393Z,34.63
2019-01-31T21:19:41.485Z,32.63
2019-01-31T21:22:46.925Z,26.20
2019-01-31T21:25:52.941Z,24.80
2019-01-31T21:28:58.183Z,24.70
2019-01-31T21:32:03.322Z,26.43
2019-01-31T21:35:08.984Z,31.30
2019-01-31T21:38:14.601Z,34.80
2019-01-31T21:41:19.744Z,32.00
2019-01-31T21:44:24.897Z,31.17
2019-01-31T21:47:30.854Z,34.00
2019-01-31T21:50:41.404Z,34.53
2019-01-31T21:53:46.723Z,27.20
2019-01-31T21:56:51.836Z,30.57
2019-01-31T21:59:56.730Z,31.70
2019-01-31T22:03:01.923Z,31.30
2019-01-31T22:06:07.076Z,24.30
2019-01-31T22:09:12.379Z,25.73
2019-01-31T22:12:17.904Z,28.30
2019-01-31T22:15:25.566Z,25.47
2019-01-31T22:18:30.578Z,25.47
2019-01-31T22:21:37.963Z,25.27
2019-01-31T22:24:44.245Z,27.50
2019-01-31T22:27:49.624Z,25.97
2019-01-31T22:30:56.985Z,26.13
2019-01-31T22:34:06.452Z,28.00
2019-01-31T22:37:11.651Z,25.13
2019-01-31T22:40:17.054Z,23.07
2019-01-31T22:43:22.022Z,23.10
2019-01-31T22:46:28.003Z,23.67
2019-01-31T22:49:36.717Z,23.07
2019-01-31T22:52:42.215Z,23.77
2019-01-31T22:55:47.736Z,24.07
2019-01-31T22:58:52.819Z,24.90
2019-01-31T23:02:05.127Z,25.20
2019-01-31T23:05:11.437Z,26.40
2019-01-31T23:08:18.681Z,25.40
2019-01-31T23:11:23.926Z,24.43
2019-01-31T23:14:29.029Z,26.50
2019-01-31T23:17:37.239Z,29.20
2019-01-31T23:20:44.473Z,31.10
2019-01-31T23:23:49.864Z,26.83
2019-01-31T23:26:54.848Z,27.07
2019-01-31T23:30:00.147Z,25.23
2019-01-31T23:33:06.006Z,26.80
2019-01-31T23:36:11.295Z,26.90
2019-01-31T23:39:16.306Z,26.93
2019-01-31T23:42:21.556Z,28.60
2019-01-31T23:45:26.589Z,28.50
2019-01-31T23:48:32.346Z,32.60
2019-01-31T23:51:37.296Z,29.90
2019-01-31T23:54:42.253Z,32.30
2019-01-31T23:57:47.051Z,37.10
